sensor_id;sensor_type;location;lat;lon;timestamp;P1;durP1;ratioP1;P2;durP2;ratioP2
36221;SDS011;22266;52.340;4.962;2023-04-01T00:01:22;13.50;;;12.50;;
36221;SDS011;22266;52.340;4.962;2023-04-01T00:03:48;14.50;;;13.00;;
36221;SDS011;22266;52.340;4.962;2023-04-01T00:06:16;16.25;;;10.25;;
36221;SDS011;22266;52.340;4.962;2023-04-01T00:08:45;9.25;;;8.00;;
36221;SDS011;22266;52.340;4.962;2023-04-01T00:11:12;13.00;;;11.50;;
36221;SDS011;22266;52.340;4.962;2023-04-01T00:13:39;9.50;;;8.25;;
36221;SDS011;22266;52.340;4.962;2023-04-01T00:16:07;16.50;;;14.25;;
36221;SDS011;22266;52.340;4.962;2023-04-01T00:18:46;9.50;;;9.50;;
36221;SDS011;22266;52.340;4.962;2023-04-01T00:21:16;13.50;;;9.50;;
36221;SDS011;22266;52.340;4.962;2023-04-01T00:23:43;11.50;;;11.50;;
36221;SDS011;22266;52.340;4.962;2023-04-01T00:26:10;15.25;;;9.50;;
36221;SDS011;22266;52.340;4.962;2023-04-01T00:28:38;8.50;;;5.25;;
36221;SDS011;22266;52.340;4.962;2023-04-01T00:31:05;9.50;;;5.00;;
36221;SDS011;22266;52.340;4.962;2023-04-01T00:33:33;13.50;;;10.25;;
36221;SDS011;22266;52.340;4.962;2023-04-01T00:38:56;5.00;;;4.00;;
36221;SDS011;22266;52.340;4.962;2023-04-01T00:41:25;5.25;;;4.25;;
36221;SDS011;22266;52.340;4.962;2023-04-01T00:43:52;6.00;;;4.50;;
36221;SDS011;22266;52.340;4.962;2023-04-01T00:46:20;3.75;;;3.00;;
36221;SDS011;22266;52.340;4.962;2023-04-01T00:48:48;3.50;;;2.00;;
36221;SDS011;22266;52.340;4.962;2023-04-01T00:51:23;5.00;;;5.00;;
36221;SDS011;22266;52.340;4.962;2023-04-01T00:53:54;3.25;;;2.00;;
36221;SDS011;22266;52.340;4.962;2023-04-01T00:56:44;4.75;;;2.00;;
36221;SDS011;22266;52.340;4.962;2023-04-01T00:59:21;5.00;;;2.00;;
36221;SDS011;22266;52.340;4.962;2023-04-01T01:01:51;4.25;;;4.25;;
36221;SDS011;22266;52.340;4.962;2023-04-01T01:04:35;2.00;;;2.00;;
36221;SDS011;22266;52.340;4.962;2023-04-01T01:12:35;2.50;;;2.50;;
36221;SDS011;22266;52.340;4.962;2023-04-01T01:15:21;5.25;;;5.25;;
36221;SDS011;22266;52.340;4.962;2023-04-01T01:29:13;2.00;;;2.00;;
36221;SDS011;22266;52.340;4.962;2023-04-01T01:37:17;5.50;;;4.00;;
36221;SDS011;22266;52.340;4.962;2023-04-01T01:39:54;2.25;;;2.00;;
36221;SDS011;22266;52.340;4.962;2023-04-01T01:42:25;7.00;;;3.50;;
36221;SDS011;22266;52.340;4.962;2023-04-01T01:44:53;3.75;;;2.00;;
36221;SDS011;22266;52.340;4.962;2023-04-01T01:47:23;2.00;;;2.00;;
36221;SDS011;22266;52.340;4.962;2023-04-01T01:49:51;2.00;;;2.00;;
36221;SDS011;22266;52.340;4.962;2023-04-01T01:52:21;4.00;;;2.00;;
36221;SDS011;22266;52.340;4.962;2023-04-01T01:54:50;2.00;;;2.00;;
36221;SDS011;22266;52.340;4.962;2023-04-01T01:57:42;2.00;;;2.00;;
36221;SDS011;22266;52.340;4.962;2023-04-01T02:00:14;4.25;;;4.25;;
36221;SDS011;22266;52.340;4.962;2023-04-01T02:02:44;2.75;;;2.75;;
36221;SDS011;22266;52.340;4.962;2023-04-01T02:05:17;3.50;;;3.50;;
36221;SDS011;22266;52.340;4.962;2023-04-01T02:07:49;6.75;;;6.75;;
36221;SDS011;22266;52.340;4.962;2023-04-01T02:10:40;6.75;;;6.75;;
36221;SDS011;22266;52.340;4.962;2023-04-01T02:13:16;5.25;;;5.25;;
36221;SDS011;22266;52.340;4.962;2023-04-01T02:15:50;9.25;;;8.50;;
36221;SDS011;22266;52.340;4.962;2023-04-01T02:18:21;10.75;;;9.50;;
36221;SDS011;22266;52.340;4.962;2023-04-01T02:20:48;11.50;;;10.00;;
36221;SDS011;22266;52.340;4.962;2023-04-01T02:23:15;15.00;;;13.25;;
36221;SDS011;22266;52.340;4.962;2023-04-01T02:25:42;12.75;;;11.25;;
36221;SDS011;22266;52.340;4.962;2023-04-01T02:28:10;14.00;;;9.25;;
36221;SDS011;22266;52.340;4.962;2023-04-01T02:30:39;22.75;;;17.50;;
36221;SDS011;22266;52.340;4.962;2023-04-01T02:33:08;14.25;;;14.25;;
36221;SDS011;22266;52.340;4.962;2023-04-01T02:35:36;15.00;;;13.50;;
36221;SDS011;22266;52.340;4.962;2023-04-01T02:38:03;18.00;;;16.75;;
36221;SDS011;22266;52.340;4.962;2023-04-01T02:40:41;12.00;;;12.00;;
36221;SDS011;22266;52.340;4.962;2023-04-01T02:43:09;5.25;;;5.25;;
36221;SDS011;22266;52.340;4.962;2023-04-01T02:45:35;13.25;;;11.00;;
36221;SDS011;22266;52.340;4.962;2023-04-01T02:48:02;15.00;;;12.75;;
36221;SDS011;22266;52.340;4.962;2023-04-01T02:50:29;10.00;;;10.00;;
36221;SDS011;22266;52.340;4.962;2023-04-01T02:52:55;11.00;;;9.50;;
36221;SDS011;22266;52.340;4.962;2023-04-01T02:55:22;16.00;;;11.00;;
36221;SDS011;22266;52.340;4.962;2023-04-01T02:57:48;9.00;;;8.75;;
36221;SDS011;22266;52.340;4.962;2023-04-01T03:00:15;9.25;;;9.25;;
36221;SDS011;22266;52.340;4.962;2023-04-01T03:02:42;10.00;;;8.75;;
36221;SDS011;22266;52.340;4.962;2023-04-01T03:05:10;11.00;;;10.50;;
36221;SDS011;22266;52.340;4.962;2023-04-01T03:07:37;14.50;;;10.00;;
36221;SDS011;22266;52.340;4.962;2023-04-01T03:10:03;6.00;;;5.50;;
36221;SDS011;22266;52.340;4.962;2023-04-01T03:12:31;14.50;;;13.50;;
36221;SDS011;22266;52.340;4.962;2023-04-01T03:14:57;8.25;;;8.00;;
36221;SDS011;22266;52.340;4.962;2023-04-01T03:17:36;8.75;;;8.50;;
36221;SDS011;22266;52.340;4.962;2023-04-01T03:20:03;9.50;;;7.75;;
36221;SDS011;22266;52.340;4.962;2023-04-01T03:22:31;8.75;;;7.50;;
36221;SDS011;22266;52.340;4.962;2023-04-01T03:24:57;8.25;;;8.25;;
36221;SDS011;22266;52.340;4.962;2023-04-01T03:27:24;5.25;;;5.00;;
36221;SDS011;22266;52.340;4.962;2023-04-01T03:29:50;6.75;;;5.25;;
36221;SDS011;22266;52.340;4.962;2023-04-01T03:32:17;5.50;;;5.50;;
36221;SDS011;22266;52.340;4.962;2023-04-01T03:34:45;8.00;;;5.50;;
36221;SDS011;22266;52.340;4.962;2023-04-01T03:37:11;8.75;;;6.50;;
36221;SDS011;22266;52.340;4.962;2023-04-01T03:39:38;5.50;;;4.25;;
36221;SDS011;22266;52.340;4.962;2023-04-01T03:42:04;9.50;;;6.50;;
36221;SDS011;22266;52.340;4.962;2023-04-01T03:44:33;8.00;;;6.00;;
36221;SDS011;22266;52.340;4.962;2023-04-01T03:47:00;7.75;;;7.00;;
36221;SDS011;22266;52.340;4.962;2023-04-01T03:49:27;5.00;;;5.00;;
36221;SDS011;22266;52.340;4.962;2023-04-01T03:51:53;11.50;;;5.50;;
36221;SDS011;22266;52.340;4.962;2023-04-01T03:54:21;9.25;;;6.25;;
36221;SDS011;22266;52.340;4.962;2023-04-01T03:56:48;6.75;;;5.50;;
36221;SDS011;22266;52.340;4.962;2023-04-01T03:59:14;7.00;;;4.25;;
36221;SDS011;22266;52.340;4.962;2023-04-01T04:01:41;4.25;;;3.00;;
36221;SDS011;22266;52.340;4.962;2023-04-01T04:04:07;4.25;;;4.25;;
36221;SDS011;22266;52.340;4.962;2023-04-01T04:06:38;4.00;;;4.00;;
36221;SDS011;22266;52.340;4.962;2023-04-01T04:09:04;6.00;;;5.00;;
36221;SDS011;22266;52.340;4.962;2023-04-01T04:11:31;5.25;;;4.75;;
36221;SDS011;22266;52.340;4.962;2023-04-01T04:13:59;9.00;;;5.50;;
36221;SDS011;22266;52.340;4.962;2023-04-01T04:16:26;5.25;;;4.00;;
36221;SDS011;22266;52.340;4.962;2023-04-01T04:18:57;5.00;;;5.00;;
36221;SDS011;22266;52.340;4.962;2023-04-01T04:21:24;10.00;;;6.50;;
36221;SDS011;22266;52.340;4.962;2023-04-01T04:23:50;8.00;;;7.00;;
36221;SDS011;22266;52.340;4.962;2023-04-01T04:26:18;7.75;;;6.00;;
36221;SDS011;22266;52.340;4.962;2023-04-01T04:28:54;8.00;;;6.00;;
36221;SDS011;22266;52.340;4.962;2023-04-01T04:31:22;8.00;;;5.00;;
36221;SDS011;22266;52.340;4.962;2023-04-01T04:33:51;5.25;;;5.00;;
36221;SDS011;22266;52.340;4.962;2023-04-01T04:36:18;7.75;;;4.25;;
36221;SDS011;22266;52.340;4.962;2023-04-01T04:38:47;6.00;;;5.00;;
36221;SDS011;22266;52.340;4.962;2023-04-01T04:41:15;5.75;;;5.25;;
36221;SDS011;22266;52.340;4.962;2023-04-01T04:43:51;8.50;;;6.75;;
36221;SDS011;22266;52.340;4.962;2023-04-01T04:46:23;9.00;;;6.75;;
36221;SDS011;22266;52.340;4.962;2023-04-01T04:48:56;5.75;;;3.75;;
36221;SDS011;22266;52.340;4.962;2023-04-01T04:51:23;10.00;;;8.00;;
36221;SDS011;22266;52.340;4.962;2023-04-01T04:53:50;8.50;;;5.50;;
36221;SDS011;22266;52.340;4.962;2023-04-01T04:56:24;7.75;;;6.25;;
36221;SDS011;22266;52.340;4.962;2023-04-01T04:59:07;8.00;;;7.00;;
36221;SDS011;22266;52.340;4.962;2023-04-01T05:01:41;5.00;;;5.00;;
36221;SDS011;22266;52.340;4.962;2023-04-01T05:04:08;7.50;;;6.25;;
36221;SDS011;22266;52.340;4.962;2023-04-01T05:06:35;4.50;;;4.50;;
36221;SDS011;22266;52.340;4.962;2023-04-01T05:09:02;8.00;;;8.00;;
36221;SDS011;22266;52.340;4.962;2023-04-01T05:11:28;5.75;;;5.75;;
36221;SDS011;22266;52.340;4.962;2023-04-01T05:13:55;5.00;;;5.00;;
36221;SDS011;22266;52.340;4.962;2023-04-01T05:16:22;11.25;;;6.00;;
36221;SDS011;22266;52.340;4.962;2023-04-01T05:18:48;7.00;;;6.00;;
36221;SDS011;22266;52.340;4.962;2023-04-01T05:21:15;5.00;;;5.00;;
36221;SDS011;22266;52.340;4.962;2023-04-01T05:23:42;8.00;;;5.00;;
36221;SDS011;22266;52.340;4.962;2023-04-01T05:26:13;7.00;;;5.50;;
36221;SDS011;22266;52.340;4.962;2023-04-01T05:28:41;7.50;;;6.25;;
36221;SDS011;22266;52.340;4.962;2023-04-01T05:31:08;5.25;;;5.25;;
36221;SDS011;22266;52.340;4.962;2023-04-01T05:33:41;12.00;;;9.75;;
36221;SDS011;22266;52.340;4.962;2023-04-01T05:36:12;5.75;;;5.00;;
36221;SDS011;22266;52.340;4.962;2023-04-01T05:38:41;8.00;;;7.75;;
36221;SDS011;22266;52.340;4.962;2023-04-01T05:41:11;7.50;;;7.50;;
36221;SDS011;22266;52.340;4.962;2023-04-01T05:43:42;8.00;;;8.00;;
36221;SDS011;22266;52.340;4.962;2023-04-01T05:46:47;9.25;;;7.00;;
36221;SDS011;22266;52.340;4.962;2023-04-01T05:49:18;8.50;;;7.50;;
36221;SDS011;22266;52.340;4.962;2023-04-01T05:51:44;9.25;;;9.25;;
36221;SDS011;22266;52.340;4.962;2023-04-01T05:54:11;13.50;;;8.00;;
36221;SDS011;22266;52.340;4.962;2023-04-01T05:56:38;10.25;;;7.00;;
36221;SDS011;22266;52.340;4.962;2023-04-01T05:59:04;10.00;;;6.75;;
36221;SDS011;22266;52.340;4.962;2023-04-01T06:01:31;12.50;;;10.00;;
36221;SDS011;22266;52.340;4.962;2023-04-01T06:03:58;12.00;;;11.00;;
36221;SDS011;22266;52.340;4.962;2023-04-01T06:06:29;9.00;;;9.00;;
36221;SDS011;22266;52.340;4.962;2023-04-01T06:09:14;13.75;;;9.00;;
36221;SDS011;22266;52.340;4.962;2023-04-01T06:26:34;14.50;;;10.00;;
36221;SDS011;22266;52.340;4.962;2023-04-01T06:32:10;12.75;;;8.25;;
36221;SDS011;22266;52.340;4.962;2023-04-01T06:34:48;7.00;;;6.25;;
36221;SDS011;22266;52.340;4.962;2023-04-01T06:40:19;7.00;;;5.00;;
36221;SDS011;22266;52.340;4.962;2023-04-01T06:51:46;9.50;;;6.00;;
36221;SDS011;22266;52.340;4.962;2023-04-01T06:54:44;10.75;;;7.50;;
36221;SDS011;22266;52.340;4.962;2023-04-01T06:57:35;8.50;;;6.25;;
36221;SDS011;22266;52.340;4.962;2023-04-01T07:00:13;9.00;;;8.00;;
36221;SDS011;22266;52.340;4.962;2023-04-01T07:02:48;6.00;;;6.00;;
36221;SDS011;22266;52.340;4.962;2023-04-01T07:05:22;12.50;;;9.00;;
36221;SDS011;22266;52.340;4.962;2023-04-01T07:07:50;9.50;;;7.75;;
36221;SDS011;22266;52.340;4.962;2023-04-01T07:10:23;11.75;;;11.25;;
36221;SDS011;22266;52.340;4.962;2023-04-01T07:22:10;11.50;;;10.00;;
36221;SDS011;22266;52.340;4.962;2023-04-01T07:25:12;14.25;;;12.25;;
36221;SDS011;22266;52.340;4.962;2023-04-01T07:27:44;13.50;;;12.50;;
36221;SDS011;22266;52.340;4.962;2023-04-01T07:30:15;12.75;;;11.00;;
36221;SDS011;22266;52.340;4.962;2023-04-01T07:32:51;10.50;;;9.00;;
36221;SDS011;22266;52.340;4.962;2023-04-01T07:35:36;11.25;;;8.00;;
36221;SDS011;22266;52.340;4.962;2023-04-01T07:40:54;11.25;;;10.50;;
36221;SDS011;22266;52.340;4.962;2023-04-01T07:46:39;10.25;;;8.25;;
36221;SDS011;22266;52.340;4.962;2023-04-01T07:52:05;12.75;;;10.75;;
36221;SDS011;22266;52.340;4.962;2023-04-01T08:00:49;13.75;;;12.00;;
36221;SDS011;22266;52.340;4.962;2023-04-01T08:03:51;12.75;;;11.25;;
36221;SDS011;22266;52.340;4.962;2023-04-01T08:06:36;14.25;;;10.25;;
36221;SDS011;22266;52.340;4.962;2023-04-01T08:15:49;12.50;;;10.25;;
36221;SDS011;22266;52.340;4.962;2023-04-01T08:23:55;11.25;;;9.25;;
36221;SDS011;22266;52.340;4.962;2023-04-01T08:26:39;9.25;;;8.75;;
36221;SDS011;22266;52.340;4.962;2023-04-01T08:29:13;8.75;;;8.75;;
36221;SDS011;22266;52.340;4.962;2023-04-01T08:32:00;7.00;;;7.00;;
36221;SDS011;22266;52.340;4.962;2023-04-01T08:34:38;12.50;;;11.50;;
36221;SDS011;22266;52.340;4.962;2023-04-01T08:37:24;9.25;;;9.25;;
36221;SDS011;22266;52.340;4.962;2023-04-01T08:39:58;14.00;;;12.75;;
36221;SDS011;22266;52.340;4.962;2023-04-01T08:42:52;14.00;;;9.75;;
36221;SDS011;22266;52.340;4.962;2023-04-01T08:45:53;8.25;;;6.50;;
36221;SDS011;22266;52.340;4.962;2023-04-01T08:48:42;10.50;;;8.50;;
36221;SDS011;22266;52.340;4.962;2023-04-01T09:00:43;8.25;;;6.75;;
36221;SDS011;22266;52.340;4.962;2023-04-01T09:03:56;7.00;;;6.00;;
36221;SDS011;22266;52.340;4.962;2023-04-01T09:15:00;8.50;;;7.25;;
36221;SDS011;22266;52.340;4.962;2023-04-01T09:29:18;7.25;;;7.25;;
36221;SDS011;22266;52.340;4.962;2023-04-01T09:37:57;7.75;;;6.75;;
36221;SDS011;22266;52.340;4.962;2023-04-01T09:40:51;11.00;;;9.25;;
36221;SDS011;22266;52.340;4.962;2023-04-01T09:43:46;10.25;;;7.25;;
36221;SDS011;22266;52.340;4.962;2023-04-01T10:01:31;12.50;;;12.50;;
36221;SDS011;22266;52.340;4.962;2023-04-01T10:09:57;11.25;;;10.50;;
36221;SDS011;22266;52.340;4.962;2023-04-01T10:19:43;6.00;;;6.00;;
36221;SDS011;22266;52.340;4.962;2023-04-01T10:25:05;8.75;;;5.75;;
36221;SDS011;22266;52.340;4.962;2023-04-01T10:36:54;8.50;;;8.25;;
36221;SDS011;22266;52.340;4.962;2023-04-01T10:48:48;4.75;;;4.75;;
36221;SDS011;22266;52.340;4.962;2023-04-01T11:11:01;6.50;;;6.00;;
36221;SDS011;22266;52.340;4.962;2023-04-01T11:26:02;10.00;;;7.50;;
36221;SDS011;22266;52.340;4.962;2023-04-01T11:28:34;5.50;;;5.00;;
36221;SDS011;22266;52.340;4.962;2023-04-01T11:37:36;14.00;;;11.75;;
36221;SDS011;22266;52.340;4.962;2023-04-01T11:40:44;12.25;;;7.75;;
36221;SDS011;22266;52.340;4.962;2023-04-01T11:43:43;12.00;;;10.00;;
36221;SDS011;22266;52.340;4.962;2023-04-01T11:46:51;12.25;;;11.00;;
36221;SDS011;22266;52.340;4.962;2023-04-01T11:49:25;12.00;;;11.00;;
36221;SDS011;22266;52.340;4.962;2023-04-01T11:55:06;9.75;;;9.50;;
36221;SDS011;22266;52.340;4.962;2023-04-01T11:57:52;14.00;;;12.00;;
36221;SDS011;22266;52.340;4.962;2023-04-01T12:03:10;11.50;;;11.50;;
36221;SDS011;22266;52.340;4.962;2023-04-01T12:06:14;14.50;;;13.00;;
36221;SDS011;22266;52.340;4.962;2023-04-01T12:09:01;17.75;;;14.00;;
36221;SDS011;22266;52.340;4.962;2023-04-01T12:11:39;17.00;;;11.00;;
36221;SDS011;22266;52.340;4.962;2023-04-01T12:16:59;11.00;;;11.00;;
36221;SDS011;22266;52.340;4.962;2023-04-01T12:28:18;12.00;;;11.00;;
36221;SDS011;22266;52.340;4.962;2023-04-01T12:30:58;11.00;;;10.00;;
36221;SDS011;22266;52.340;4.962;2023-04-01T12:39:08;6.75;;;6.00;;
36221;SDS011;22266;52.340;4.962;2023-04-01T12:44:23;9.75;;;9.00;;
36221;SDS011;22266;52.340;4.962;2023-04-01T12:47:00;7.50;;;4.75;;
36221;SDS011;22266;52.340;4.962;2023-04-01T12:55:35;5.25;;;5.25;;
36221;SDS011;22266;52.340;4.962;2023-04-01T13:01:03;6.00;;;6.00;;
36221;SDS011;22266;52.340;4.962;2023-04-01T13:04:05;6.00;;;6.00;;
36221;SDS011;22266;52.340;4.962;2023-04-01T13:09:51;5.50;;;5.50;;
36221;SDS011;22266;52.340;4.962;2023-04-01T13:12:27;6.00;;;6.00;;
36221;SDS011;22266;52.340;4.962;2023-04-01T13:20:42;6.00;;;6.00;;
36221;SDS011;22266;52.340;4.962;2023-04-01T13:28:58;6.00;;;5.25;;
36221;SDS011;22266;52.340;4.962;2023-04-01T13:34:08;5.25;;;4.00;;
36221;SDS011;22266;52.340;4.962;2023-04-01T13:39:25;7.25;;;7.25;;
36221;SDS011;22266;52.340;4.962;2023-04-01T13:42:10;10.00;;;6.00;;
36221;SDS011;22266;52.340;4.962;2023-04-01T13:45:14;8.00;;;7.25;;
36221;SDS011;22266;52.340;4.962;2023-04-01T13:47:51;5.00;;;5.00;;
36221;SDS011;22266;52.340;4.962;2023-04-01T13:50:30;7.50;;;7.50;;
36221;SDS011;22266;52.340;4.962;2023-04-01T13:56:02;6.25;;;5.75;;
36221;SDS011;22266;52.340;4.962;2023-04-01T14:01:31;11.25;;;8.25;;
36221;SDS011;22266;52.340;4.962;2023-04-01T14:07:08;15.00;;;13.00;;
36221;SDS011;22266;52.340;4.962;2023-04-01T14:12:57;8.00;;;8.00;;
36221;SDS011;22266;52.340;4.962;2023-04-01T14:15:32;8.00;;;5.75;;
36221;SDS011;22266;52.340;4.962;2023-04-01T14:18:13;6.75;;;6.50;;
36221;SDS011;22266;52.340;4.962;2023-04-01T14:32:27;15.50;;;11.25;;
36221;SDS011;22266;52.340;4.962;2023-04-01T14:34:59;11.50;;;9.00;;
36221;SDS011;22266;52.340;4.962;2023-04-01T14:37:33;11.50;;;10.50;;
36221;SDS011;22266;52.340;4.962;2023-04-01T14:46:02;8.75;;;8.00;;
36221;SDS011;22266;52.340;4.962;2023-04-01T14:48:37;10.00;;;8.50;;
36221;SDS011;22266;52.340;4.962;2023-04-01T14:51:10;13.00;;;13.00;;
36221;SDS011;22266;52.340;4.962;2023-04-01T14:59:17;9.25;;;8.75;;
36221;SDS011;22266;52.340;4.962;2023-04-01T15:02:09;12.00;;;7.50;;
36221;SDS011;22266;52.340;4.962;2023-04-01T15:10:42;6.00;;;6.00;;
36221;SDS011;22266;52.340;4.962;2023-04-01T15:13:24;6.00;;;6.00;;
36221;SDS011;22266;52.340;4.962;2023-04-01T15:16:16;5.25;;;4.50;;
36221;SDS011;22266;52.340;4.962;2023-04-01T15:22:38;8.25;;;5.00;;
36221;SDS011;22266;52.340;4.962;2023-04-01T15:27:49;7.25;;;7.25;;
36221;SDS011;22266;52.340;4.962;2023-04-01T15:30:25;9.00;;;6.75;;
36221;SDS011;22266;52.340;4.962;2023-04-01T15:33:59;7.25;;;7.25;;
36221;SDS011;22266;52.340;4.962;2023-04-01T15:38:33;9.25;;;6.50;;
36221;SDS011;22266;52.340;4.962;2023-04-01T15:41:15;7.75;;;7.75;;
36221;SDS011;22266;52.340;4.962;2023-04-01T15:43:47;6.25;;;6.00;;
36221;SDS011;22266;52.340;4.962;2023-04-01T15:57:20;8.75;;;8.75;;
36221;SDS011;22266;52.340;4.962;2023-04-01T16:02:48;7.00;;;7.00;;
36221;SDS011;22266;52.340;4.962;2023-04-01T16:05:30;4.25;;;4.25;;
36221;SDS011;22266;52.340;4.962;2023-04-01T16:08:14;6.75;;;6.00;;
36221;SDS011;22266;52.340;4.962;2023-04-01T16:11:11;5.00;;;4.00;;
36221;SDS011;22266;52.340;4.962;2023-04-01T16:19:25;7.50;;;7.00;;
36221;SDS011;22266;52.340;4.962;2023-04-01T16:22:05;7.00;;;5.50;;
36221;SDS011;22266;52.340;4.962;2023-04-01T16:27:55;6.00;;;6.00;;
36221;SDS011;22266;52.340;4.962;2023-04-01T16:30:35;6.00;;;4.00;;
36221;SDS011;22266;52.340;4.962;2023-04-01T16:33:10;6.75;;;4.75;;
36221;SDS011;22266;52.340;4.962;2023-04-01T16:42:09;5.50;;;4.00;;
36221;SDS011;22266;52.340;4.962;2023-04-01T16:44:55;7.00;;;5.25;;
36221;SDS011;22266;52.340;4.962;2023-04-01T16:47:41;5.25;;;5.25;;
36221;SDS011;22266;52.340;4.962;2023-04-01T16:56:02;7.75;;;7.00;;
36221;SDS011;22266;52.340;4.962;2023-04-01T16:58:39;9.00;;;7.00;;
36221;SDS011;22266;52.340;4.962;2023-04-01T17:01:28;11.75;;;8.00;;
36221;SDS011;22266;52.340;4.962;2023-04-01T17:04:24;5.00;;;5.00;;
36221;SDS011;22266;52.340;4.962;2023-04-01T17:07:03;6.00;;;6.00;;
36221;SDS011;22266;52.340;4.962;2023-04-01T17:09:57;6.25;;;6.25;;
36221;SDS011;22266;52.340;4.962;2023-04-01T17:15:55;7.50;;;6.25;;
36221;SDS011;22266;52.340;4.962;2023-04-01T17:21:21;8.00;;;8.00;;
36221;SDS011;22266;52.340;4.962;2023-04-01T17:24:23;5.00;;;5.00;;
36221;SDS011;22266;52.340;4.962;2023-04-01T17:32:36;6.00;;;6.00;;
36221;SDS011;22266;52.340;4.962;2023-04-01T17:35:12;4.75;;;4.75;;
36221;SDS011;22266;52.340;4.962;2023-04-01T17:37:50;6.50;;;4.25;;
36221;SDS011;22266;52.340;4.962;2023-04-01T17:40:34;7.25;;;4.50;;
36221;SDS011;22266;52.340;4.962;2023-04-01T17:45:49;3.50;;;3.50;;
36221;SDS011;22266;52.340;4.962;2023-04-01T17:48:27;5.50;;;4.75;;
36221;SDS011;22266;52.340;4.962;2023-04-01T17:51:46;5.00;;;5.00;;
36221;SDS011;22266;52.340;4.962;2023-04-01T18:02:43;5.50;;;5.50;;
36221;SDS011;22266;52.340;4.962;2023-04-01T18:05:26;6.00;;;6.00;;
36221;SDS011;22266;52.340;4.962;2023-04-01T18:08:23;4.25;;;4.25;;
36221;SDS011;22266;52.340;4.962;2023-04-01T18:21:49;9.00;;;9.00;;
36221;SDS011;22266;52.340;4.962;2023-04-01T18:24:22;5.75;;;5.00;;
36221;SDS011;22266;52.340;4.962;2023-04-01T18:27:03;4.25;;;4.25;;
36221;SDS011;22266;52.340;4.962;2023-04-01T18:32:19;3.50;;;3.00;;
36221;SDS011;22266;52.340;4.962;2023-04-01T18:34:57;6.50;;;6.50;;
36221;SDS011;22266;52.340;4.962;2023-04-01T18:40:23;6.00;;;5.50;;
36221;SDS011;22266;52.340;4.962;2023-04-01T18:45:57;3.50;;;3.50;;
36221;SDS011;22266;52.340;4.962;2023-04-01T18:48:50;7.75;;;5.75;;
36221;SDS011;22266;52.340;4.962;2023-04-01T18:51:27;7.75;;;5.75;;
36221;SDS011;22266;52.340;4.962;2023-04-01T18:54:27;5.00;;;5.00;;
36221;SDS011;22266;52.340;4.962;2023-04-01T19:02:50;6.50;;;5.50;;
36221;SDS011;22266;52.340;4.962;2023-04-01T19:05:32;8.75;;;6.50;;
36221;SDS011;22266;52.340;4.962;2023-04-01T19:38:14;11.00;;;8.00;;
36221;SDS011;22266;52.340;4.962;2023-04-01T19:41:11;10.50;;;8.00;;
36221;SDS011;22266;52.340;4.962;2023-04-01T19:46:30;6.25;;;6.25;;
36221;SDS011;22266;52.340;4.962;2023-04-01T19:52:17;8.25;;;8.25;;
36221;SDS011;22266;52.340;4.962;2023-04-01T19:55:06;7.50;;;5.75;;
36221;SDS011;22266;52.340;4.962;2023-04-01T20:00:25;6.50;;;6.50;;
36221;SDS011;22266;52.340;4.962;2023-04-01T20:06:02;10.00;;;9.50;;
36221;SDS011;22266;52.340;4.962;2023-04-01T20:13:56;15.50;;;10.75;;
36221;SDS011;22266;52.340;4.962;2023-04-01T20:16:36;7.00;;;7.00;;
36221;SDS011;22266;52.340;4.962;2023-04-01T20:19:15;10.50;;;8.75;;
36221;SDS011;22266;52.340;4.962;2023-04-01T20:21:56;10.75;;;8.00;;
36221;SDS011;22266;52.340;4.962;2023-04-01T20:24:30;11.00;;;9.00;;
36221;SDS011;22266;52.340;4.962;2023-04-01T20:27:08;8.00;;;7.25;;
36221;SDS011;22266;52.340;4.962;2023-04-01T20:41:17;10.50;;;8.00;;
36221;SDS011;22266;52.340;4.962;2023-04-01T20:44:09;8.75;;;7.75;;
36221;SDS011;22266;52.340;4.962;2023-04-01T20:49:15;5.75;;;5.75;;
36221;SDS011;22266;52.340;4.962;2023-04-01T20:52:02;11.00;;;9.00;;
36221;SDS011;22266;52.340;4.962;2023-04-01T20:54:54;10.00;;;10.00;;
36221;SDS011;22266;52.340;4.962;2023-04-01T20:57:56;8.75;;;8.75;;
36221;SDS011;22266;52.340;4.962;2023-04-01T21:06:44;6.25;;;6.25;;
36221;SDS011;22266;52.340;4.962;2023-04-01T21:12:10;2.25;;;2.00;;
36221;SDS011;22266;52.340;4.962;2023-04-01T21:14:56;6.75;;;6.75;;
36221;SDS011;22266;52.340;4.962;2023-04-01T21:26:22;9.75;;;9.50;;
36221;SDS011;22266;52.340;4.962;2023-04-01T21:29:26;11.75;;;10.75;;
36221;SDS011;22266;52.340;4.962;2023-04-01T21:32:13;11.75;;;10.75;;
36221;SDS011;22266;52.340;4.962;2023-04-01T21:34:48;9.25;;;9.00;;
36221;SDS011;22266;52.340;4.962;2023-04-01T21:43:17;15.00;;;11.25;;
36221;SDS011;22266;52.340;4.962;2023-04-01T21:49:12;16.50;;;13.00;;
36221;SDS011;22266;52.340;4.962;2023-04-01T22:00:32;10.25;;;9.25;;
36221;SDS011;22266;52.340;4.962;2023-04-01T22:03:21;14.75;;;12.25;;
36221;SDS011;22266;52.340;4.962;2023-04-01T22:05:55;9.50;;;9.50;;
36221;SDS011;22266;52.340;4.962;2023-04-01T22:11:38;13.75;;;13.00;;
36221;SDS011;22266;52.340;4.962;2023-04-01T22:14:35;14.00;;;13.25;;
36221;SDS011;22266;52.340;4.962;2023-04-01T22:17:16;18.25;;;14.25;;
36221;SDS011;22266;52.340;4.962;2023-04-01T22:20:06;14.25;;;14.25;;
36221;SDS011;22266;52.340;4.962;2023-04-01T22:26:09;14.50;;;13.75;;
36221;SDS011;22266;52.340;4.962;2023-04-01T22:31:44;16.75;;;13.50;;
36221;SDS011;22266;52.340;4.962;2023-04-01T22:37:08;12.25;;;11.00;;
36221;SDS011;22266;52.340;4.962;2023-04-01T22:45:25;14.00;;;13.25;;
36221;SDS011;22266;52.340;4.962;2023-04-01T22:50:56;21.00;;;17.00;;
36221;SDS011;22266;52.340;4.962;2023-04-01T22:53:48;13.00;;;11.00;;
36221;SDS011;22266;52.340;4.962;2023-04-01T22:56:28;20.25;;;16.75;;
36221;SDS011;22266;52.340;4.962;2023-04-01T23:02:03;17.00;;;12.75;;
36221;SDS011;22266;52.340;4.962;2023-04-01T23:04:39;20.00;;;17.00;;
36221;SDS011;22266;52.340;4.962;2023-04-01T23:07:27;19.00;;;16.50;;
36221;SDS011;22266;52.340;4.962;2023-04-01T23:10:03;18.25;;;16.25;;
36221;SDS011;22266;52.340;4.962;2023-04-01T23:12:38;18.25;;;17.00;;
36221;SDS011;22266;52.340;4.962;2023-04-01T23:15:08;24.50;;;22.50;;
36221;SDS011;22266;52.340;4.962;2023-04-01T23:17:42;20.25;;;18.00;;
36221;SDS011;22266;52.340;4.962;2023-04-01T23:20:47;24.25;;;20.25;;
36221;SDS011;22266;52.340;4.962;2023-04-01T23:28:43;12.50;;;12.50;;
36221;SDS011;22266;52.340;4.962;2023-04-01T23:31:46;16.25;;;14.75;;
36221;SDS011;22266;52.340;4.962;2023-04-01T23:36:38;12.25;;;12.25;;
36221;SDS011;22266;52.340;4.962;2023-04-01T23:39:24;19.50;;;13.00;;
36221;SDS011;22266;52.340;4.962;2023-04-01T23:41:59;17.25;;;16.50;;
36221;SDS011;22266;52.340;4.962;2023-04-01T23:44:31;21.50;;;19.00;;
36221;SDS011;22266;52.340;4.962;2023-04-01T23:46:59;17.75;;;15.75;;
36221;SDS011;22266;52.340;4.962;2023-04-01T23:49:48;13.75;;;12.75;;
36221;SDS011;22266;52.340;4.962;2023-04-01T23:52:23;16.50;;;12.75;;
36221;SDS011;22266;52.340;4.962;2023-04-01T23:54:57;11.00;;;11.00;;
36221;SDS011;22266;52.340;4.962;2023-04-01T23:57:30;18.75;;;13.50;;
36221;SDS011;22266;52.340;4.962;2023-04-01T23:59:59;12.75;;;12.00;;
